Gillette, Wyoming
Current Conditions -  °F | °C
As of 2:53 PM on Monday 20 Oct 2014 (Local Time) from KGCC Reporting Station
Clear Clear  
Wind Chill: 78°   Ceiling: Unl
Heat Index: 78°   Visibility: 10mi
Dew Point: 27°   Wind: 12mph
Humidity: 15%   Direction: 200°SSW
Pressure: 29.92"   Gusts: NA
Location:  44.29°N, 105.5°W
Report Text: KGCC 202053Z AUTO 20010KT 10SM CLR 26/M03 A2992 RMK AO2 SLP097 T02561028 56019
Loading
Personal Weather Stations






























Interactive Weather Map
Tropical Storm Tracking
New forecast layout! Learn more

10-Day Weather Forecast

Advertisements
Track Severe Weather on mobile